createdAt,value
2022-08-24T16:27:57.527Z,44.15
2022-08-24T16:28:57.281Z,43.99
2022-08-24T16:31:07.080Z,43.72
2022-08-24T16:32:01.243Z,43.58
2022-08-24T16:34:05.339Z,43.58
2022-08-24T16:35:05.310Z,43.57
2022-08-24T16:37:09.927Z,43.68
2022-08-24T16:38:09.551Z,43.73
2022-08-24T16:40:14.709Z,43.55
2022-08-24T16:41:14.571Z,43.50
2022-08-24T16:43:18.762Z,43.62
2022-08-24T16:44:18.805Z,43.57
2022-08-24T16:46:23.011Z,43.50
2022-08-24T16:47:22.856Z,43.20
2022-08-24T16:49:26.941Z,42.82
2022-08-24T16:50:27.140Z,42.78
2022-08-24T16:52:30.952Z,42.79
2022-08-24T16:53:30.921Z,42.82
2022-08-24T16:55:34.942Z,42.70
2022-08-24T16:56:34.922Z,42.67
2022-08-24T16:58:40.899Z,42.50
2022-08-24T16:59:40.865Z,42.43
2022-08-24T17:01:33.966Z,42.24
2022-08-24T17:02:33.832Z,42.24
2022-08-24T17:04:38.691Z,42.10
2022-08-24T17:05:38.457Z,41.92
2022-08-24T17:07:42.410Z,41.66
2022-08-24T17:08:42.394Z,41.65
2022-08-24T17:10:48.317Z,41.45
2022-08-24T17:11:48.090Z,41.40
2022-08-24T17:13:52.384Z,41.19
2022-08-24T17:14:52.361Z,41.06
2022-08-24T17:16:57.930Z,40.91
2022-08-24T17:17:57.659Z,40.73
2022-08-24T17:20:02.386Z,40.56
2022-08-24T17:21:02.366Z,40.46
2022-08-24T17:23:06.437Z,40.31
2022-08-24T17:24:06.397Z,40.23
2022-08-24T17:26:10.387Z,39.96
2022-08-24T17:27:10.359Z,39.92
2022-08-24T17:29:18.303Z,39.58
2022-08-24T17:30:15.342Z,39.48
2022-08-24T17:32:20.156Z,39.30
2022-08-24T17:33:19.725Z,39.29
2022-08-24T17:35:25.150Z,39.02
2022-08-24T17:36:24.740Z,38.86
2022-08-24T17:38:30.221Z,38.58
2022-08-24T17:39:29.771Z,38.48
2022-08-24T17:41:22.982Z,38.34
2022-08-24T17:42:49.090Z,38.23
2022-08-24T17:44:27.731Z,38.09
2022-08-24T17:45:27.524Z,38.01
2022-08-24T17:47:31.291Z,37.89
2022-08-24T17:48:33.917Z,37.80
2022-08-24T17:50:35.860Z,37.53
2022-08-24T17:51:35.641Z,37.48
2022-08-24T17:53:40.138Z,37.18
2022-08-24T17:54:39.917Z,37.14
2022-08-24T17:56:45.321Z,36.88
2022-08-24T17:57:48.804Z,36.80
2022-08-24T17:59:50.669Z,36.57
2022-08-24T18:00:50.814Z,36.45
2022-08-24T18:02:54.652Z,36.33
2022-08-24T18:03:54.630Z,36.31
2022-08-24T18:05:59.490Z,36.17
2022-08-24T18:06:59.470Z,36.04
2022-08-24T18:09:04.640Z,35.80
2022-08-24T18:10:04.587Z,35.80
2022-08-24T18:11:58.148Z,35.68
2022-08-24T18:12:57.987Z,35.53
2022-08-24T18:15:01.725Z,35.36
2022-08-24T18:16:01.731Z,35.27
2022-08-24T18:18:06.513Z,35.02
2022-08-24T18:19:06.079Z,35.05
2022-08-24T18:21:01.364Z,34.80
2022-08-24T18:22:01.147Z,34.71
2022-08-24T18:24:06.013Z,34.54
2022-08-24T18:25:05.974Z,34.50
2022-08-24T18:27:10.649Z,34.32
2022-08-24T18:28:10.421Z,34.24
2022-08-24T18:30:15.147Z,34.03
2022-08-24T18:31:15.281Z,34.05
2022-08-24T18:33:19.418Z,33.81
2022-08-24T18:34:19.173Z,33.76
2022-08-24T18:36:23.630Z,33.55
2022-08-24T18:37:23.390Z,33.53
2022-08-24T18:39:28.354Z,33.39
2022-08-24T18:40:28.006Z,33.30
2022-08-24T18:42:32.580Z,33.09
2022-08-24T18:43:32.145Z,33.08
2022-08-24T18:45:36.958Z,32.95
2022-08-24T18:46:36.471Z,32.89
2022-08-24T18:48:43.962Z,32.73
2022-08-24T18:49:43.536Z,32.68
2022-08-24T18:51:37.337Z,32.65
2022-08-24T18:52:37.268Z,32.52
2022-08-24T18:54:41.786Z,32.48
2022-08-24T18:55:41.767Z,32.30
2022-08-24T18:57:47.643Z,32.31
2022-08-24T18:58:47.598Z,32.15
2022-08-24T19:00:52.417Z,32.14
2022-08-24T19:01:51.932Z,32.00
2022-08-24T19:03:56.462Z,31.94
2022-08-24T19:04:56.019Z,31.80
2022-08-24T19:07:00.731Z,31.81
2022-08-24T19:08:00.497Z,31.69
2022-08-24T19:10:05.131Z,31.56
2022-08-24T19:11:05.098Z,31.69
2022-08-24T19:13:09.823Z,31.49
2022-08-24T19:14:09.392Z,31.47
2022-08-24T19:16:13.591Z,31.33
2022-08-24T19:17:13.544Z,31.27
2022-08-24T19:19:17.644Z,31.24
2022-08-24T19:20:17.605Z,31.18
2022-08-24T19:21:17.584Z,31.14
2022-08-24T19:22:17.568Z,31.06
2022-08-24T19:23:17.541Z,31.07
2022-08-24T19:24:17.511Z,30.96
2022-08-24T19:25:17.494Z,30.96
2022-08-24T19:26:17.468Z,30.88
2022-08-24T19:27:17.443Z,30.91
2022-08-24T19:28:17.423Z,30.91
2022-08-24T19:29:28.481Z,30.91
2022-08-24T19:30:17.378Z,30.85
2022-08-24T19:31:17.474Z,30.81
2022-08-24T19:32:22.042Z,30.81
2022-08-24T19:33:17.313Z,30.72
2022-08-24T19:34:17.283Z,30.70
2022-08-24T19:35:17.277Z,30.66
2022-08-24T19:36:17.240Z,30.57
2022-08-24T19:37:17.233Z,30.51
2022-08-24T19:38:17.979Z,30.51
2022-08-24T19:39:17.178Z,30.47
2022-08-24T19:40:17.264Z,30.46
2022-08-24T19:41:17.635Z,30.35
2022-08-24T19:42:17.098Z,30.43
2022-08-24T19:43:17.076Z,30.34
2022-08-24T19:44:23.298Z,30.34
2022-08-24T19:45:17.025Z,30.24
2022-08-24T19:46:17.060Z,30.18
2022-08-24T19:47:16.982Z,30.10
2022-08-24T19:48:16.956Z,30.12
2022-08-24T19:49:16.933Z,30.16
2022-08-24T19:50:16.908Z,30.15
2022-08-24T19:51:16.883Z,30.10
2022-08-24T19:52:16.881Z,29.98
2022-08-24T19:53:16.839Z,30.06
2022-08-24T19:54:16.819Z,30.02
2022-08-24T19:55:16.790Z,30.05
2022-08-24T19:56:16.766Z,29.97
2022-08-24T19:57:16.740Z,29.88
2022-08-24T19:58:16.733Z,29.90
2022-08-24T19:59:17.430Z,29.79
2022-08-24T20:00:17.749Z,29.81
2022-08-24T20:01:16.733Z,29.86
2022-08-24T20:02:16.671Z,29.75
2022-08-24T20:03:16.597Z,29.81
2022-08-24T20:04:16.572Z,29.78
2022-08-24T20:05:16.552Z,29.69
2022-08-24T20:06:16.531Z,29.56
2022-08-24T20:07:16.501Z,29.63
2022-08-24T20:08:16.488Z,29.54
2022-08-24T20:09:19.544Z,29.56
2022-08-24T20:10:16.457Z,29.53
2022-08-24T20:11:16.408Z,29.54
2022-08-24T20:12:16.381Z,29.49
2022-08-24T20:13:16.362Z,29.41
2022-08-24T20:14:16.334Z,29.38
2022-08-24T20:15:16.309Z,29.34
2022-08-24T20:16:16.387Z,29.36
2022-08-24T20:17:16.264Z,29.26
2022-08-24T20:18:16.256Z,29.23
2022-08-24T20:19:16.226Z,29.29
2022-08-24T20:20:16.191Z,29.34
2022-08-24T20:21:16.176Z,29.24
2022-08-24T20:22:16.142Z,29.31
2022-08-24T20:23:16.120Z,29.32
2022-08-24T20:24:16.100Z,29.17
2022-08-24T20:25:16.071Z,29.23
2022-08-24T20:26:16.047Z,29.10
2022-08-24T20:27:16.023Z,29.08
2022-08-24T20:28:33.594Z,29.13
2022-08-24T20:29:15.983Z,29.04
2022-08-24T20:30:15.950Z,29.12
2022-08-24T20:31:15.963Z,28.98
2022-08-24T20:32:15.908Z,29.02
2022-08-24T20:33:15.876Z,28.93
2022-08-24T20:34:15.848Z,29.04
2022-08-24T20:35:15.844Z,28.91
2022-08-24T20:36:15.829Z,28.85
2022-08-24T20:37:15.781Z,28.86
2022-08-24T20:38:15.762Z,28.79
2022-08-24T20:39:15.726Z,28.78
2022-08-24T20:40:15.739Z,28.74
2022-08-24T20:41:15.682Z,28.72
2022-08-24T20:42:19.405Z,28.78
2022-08-24T20:43:15.631Z,28.70
2022-08-24T20:44:15.605Z,28.63
2022-08-24T20:45:15.583Z,28.63
2022-08-24T20:46:15.607Z,28.66
2022-08-24T20:47:15.534Z,28.59
2022-08-24T20:48:15.512Z,28.52
2022-08-24T20:49:16.989Z,28.56
2022-08-24T20:50:15.459Z,28.44
2022-08-24T20:51:15.434Z,28.47
2022-08-24T20:52:15.413Z,28.41
2022-08-24T20:53:15.395Z,28.38
2022-08-24T20:54:15.361Z,28.33
2022-08-24T20:55:15.333Z,28.39
2022-08-24T20:56:15.306Z,28.38
2022-08-24T20:57:15.287Z,28.33
2022-08-24T20:58:15.262Z,28.29
2022-08-24T20:59:15.236Z,28.30
2022-08-24T21:00:15.949Z,28.20
2022-08-24T21:01:15.605Z,28.15
2022-08-24T21:02:15.262Z,28.23
2022-08-24T21:03:15.134Z,28.11
2022-08-24T21:04:15.137Z,28.15
2022-08-24T21:05:15.089Z,28.14
2022-08-24T21:06:15.061Z,28.07
2022-08-24T21:07:15.033Z,28.14
2022-08-24T21:08:15.010Z,28.12
2022-08-24T21:09:14.996Z,28.05
2022-08-24T21:10:14.975Z,28.01
2022-08-24T21:11:14.935Z,28.02
2022-08-24T21:12:14.908Z,27.95
2022-08-24T21:13:14.884Z,27.96
2022-08-24T21:14:14.867Z,27.95
2022-08-24T21:15:14.835Z,28.01
2022-08-24T21:16:14.865Z,27.93
2022-08-24T21:17:14.784Z,27.89
2022-08-24T21:18:14.763Z,27.92
2022-08-24T21:19:14.735Z,27.75
2022-08-24T21:20:14.716Z,27.80
2022-08-24T21:21:14.685Z,27.85
2022-08-24T21:22:14.659Z,27.82
2022-08-24T21:23:14.637Z,27.75
2022-08-24T21:24:14.608Z,27.70
2022-08-24T21:25:14.702Z,27.63
2022-08-24T21:26:14.559Z,27.71
2022-08-24T21:27:14.542Z,27.63
2022-08-24T21:28:14.505Z,27.65
2022-08-24T21:29:14.484Z,27.60
2022-08-24T21:30:14.461Z,27.59
2022-08-24T21:31:14.453Z,27.65
2022-08-24T21:32:14.412Z,27.48
2022-08-24T21:33:14.383Z,27.60
2022-08-24T21:34:14.359Z,27.58
2022-08-24T21:35:15.252Z,27.48
2022-08-24T21:36:14.308Z,27.40
2022-08-24T21:37:14.287Z,27.49
2022-08-24T21:38:14.254Z,27.42
2022-08-24T21:39:14.228Z,27.40
2022-08-24T21:40:14.263Z,27.40
2022-08-24T21:41:14.182Z,27.35
2022-08-24T21:42:14.156Z,27.36
2022-08-24T21:43:14.688Z,27.35
2022-08-24T21:44:14.100Z,27.33
2022-08-24T21:45:14.083Z,27.27
2022-08-24T21:46:14.109Z,27.29
2022-08-24T21:47:14.026Z,27.29
2022-08-24T21:48:13.999Z,27.15
2022-08-24T21:49:13.978Z,27.18
2022-08-24T21:50:13.951Z,27.18
2022-08-24T21:51:13.925Z,27.12
2022-08-24T21:52:13.895Z,27.15
2022-08-24T21:53:13.873Z,27.12
2022-08-24T21:54:13.847Z,27.11
2022-08-24T21:55:15.142Z,27.08
2022-08-24T21:56:13.793Z,27.07
2022-08-24T21:57:13.771Z,27.00
2022-08-24T21:58:13.743Z,27.03
2022-08-24T21:59:13.722Z,27.00
2022-08-24T22:00:13.706Z,26.99
2022-08-24T22:01:13.674Z,26.97
2022-08-24T22:02:15.855Z,26.99
2022-08-24T22:03:13.686Z,26.95
2022-08-24T22:04:13.589Z,26.95
2022-08-24T22:05:13.565Z,26.92
2022-08-24T22:06:13.539Z,26.83
2022-08-24T22:07:13.513Z,26.88
2022-08-24T22:08:13.486Z,26.88
2022-08-24T22:09:13.464Z,26.84
2022-08-24T22:10:13.437Z,26.85
2022-08-24T22:11:13.409Z,26.90
2022-08-24T22:12:13.387Z,26.85
2022-08-24T22:13:13.361Z,26.89
2022-08-24T22:14:13.337Z,26.77
2022-08-24T22:15:13.311Z,26.81
2022-08-24T22:16:13.321Z,26.77
2022-08-24T22:17:13.259Z,26.84
2022-08-24T22:18:13.240Z,26.80
2022-08-24T22:19:13.203Z,26.74
2022-08-24T22:20:15.143Z,26.78
2022-08-24T22:21:13.156Z,26.81
2022-08-24T22:22:13.131Z,26.71
2022-08-24T22:23:13.116Z,26.73
2022-08-24T22:24:13.079Z,26.71
2022-08-24T22:25:13.076Z,26.66
2022-08-24T22:26:13.029Z,26.74
2022-08-24T22:27:13.003Z,26.68
2022-08-24T22:28:12.972Z,26.70
2022-08-24T22:29:12.949Z,26.70
2022-08-24T22:30:12.918Z,26.70
2022-08-24T22:31:12.947Z,26.66
2022-08-24T22:32:12.868Z,26.66
2022-08-24T22:33:12.843Z,26.58
2022-08-24T22:34:12.820Z,26.59
2022-08-24T22:35:12.795Z,26.63
2022-08-24T22:36:12.771Z,26.59
2022-08-24T22:37:12.738Z,26.53
2022-08-24T22:38:12.728Z,26.65
2022-08-24T22:39:12.684Z,26.55
2022-08-24T22:40:13.052Z,26.55
2022-08-24T22:41:12.635Z,26.56
2022-08-24T22:42:12.608Z,26.55
2022-08-24T22:43:12.579Z,26.52
2022-08-24T22:44:12.557Z,26.55
2022-08-24T22:45:12.531Z,26.51
2022-08-24T22:46:12.577Z,26.53
2022-08-24T22:47:15.058Z,26.52
2022-08-24T22:48:12.457Z,26.48
2022-08-24T22:49:12.429Z,26.47
2022-08-24T22:50:12.401Z,26.45
2022-08-24T22:51:12.379Z,26.47
2022-08-24T22:52:12.348Z,26.44
2022-08-24T22:53:12.322Z,26.40
2022-08-24T22:54:12.293Z,26.38
2022-08-24T22:55:12.271Z,26.44
2022-08-24T22:56:12.253Z,26.37
2022-08-24T22:57:12.219Z,26.40
2022-08-24T22:58:12.189Z,26.36
2022-08-24T22:59:12.169Z,26.45
2022-08-24T23:00:12.138Z,26.40
2022-08-24T23:01:12.148Z,26.31
2022-08-24T23:02:12.086Z,26.25
2022-08-24T23:03:12.060Z,26.25
2022-08-24T23:04:12.089Z,26.21
2022-08-24T23:05:12.011Z,26.29
2022-08-24T23:06:11.989Z,26.22
2022-08-24T23:07:11.965Z,26.26
2022-08-24T23:08:11.934Z,26.22
2022-08-24T23:09:11.906Z,26.19
2022-08-24T23:10:11.884Z,26.22
2022-08-24T23:11:11.853Z,26.26
2022-08-24T23:12:11.823Z,26.22
2022-08-24T23:13:11.806Z,26.03
2022-08-24T23:14:11.779Z,26.16
2022-08-24T23:15:11.750Z,26.09
2022-08-24T23:16:11.749Z,26.07
2022-08-24T23:17:11.698Z,26.06
2022-08-24T23:18:11.675Z,26.09
2022-08-24T23:19:11.641Z,26.15
2022-08-24T23:20:11.618Z,26.03
2022-08-24T23:21:11.588Z,26.10
2022-08-24T23:22:11.563Z,26.03
2022-08-24T23:23:11.538Z,26.02
2022-08-24T23:24:11.513Z,25.95
2022-08-24T23:25:11.499Z,26.05
2022-08-24T23:26:14.507Z,26.02
2022-08-24T23:27:11.431Z,26.00
2022-08-24T23:28:11.405Z,25.95
2022-08-24T23:29:11.382Z,25.98
2022-08-24T23:30:11.354Z,25.91
2022-08-24T23:31:11.354Z,25.90
2022-08-24T23:32:11.299Z,25.95
2022-08-24T23:33:11.275Z,25.93
2022-08-24T23:34:11.249Z,25.96
2022-08-24T23:35:11.231Z,25.91
2022-08-24T23:36:11.194Z,25.83
2022-08-24T23:37:11.171Z,25.84
2022-08-24T23:38:11.147Z,25.84
2022-08-24T23:39:11.114Z,25.77
2022-08-24T23:40:11.141Z,25.84
2022-08-24T23:41:11.075Z,25.75
2022-08-24T23:42:11.035Z,25.77
2022-08-24T23:43:11.009Z,25.75
2022-08-24T23:44:10.982Z,25.77
2022-08-24T23:45:12.253Z,25.73
2022-08-24T23:46:11.017Z,25.68
2022-08-24T23:47:10.901Z,25.65
2022-08-24T23:48:10.881Z,25.66
2022-08-24T23:49:10.850Z,25.62
2022-08-24T23:50:11.401Z,25.63
2022-08-24T23:51:10.805Z,25.55
2022-08-24T23:52:26.195Z,25.53
2022-08-24T23:53:10.745Z,25.53
2022-08-24T23:54:10.718Z,25.50
2022-08-24T23:55:21.985Z,25.46
2022-08-24T23:56:10.664Z,25.47
2022-08-24T23:57:10.640Z,25.46
2022-08-24T23:58:10.613Z,25.41
2022-08-24T23:59:10.584Z,25.32
